createdAt,value
2018-12-31T00:08:45.658Z,21.90
2018-12-31T00:18:52.578Z,21.80
2018-12-31T00:28:59.749Z,21.90
2018-12-31T00:39:07.274Z,22.00
2018-12-31T00:49:12.691Z,22.00
2018-12-31T00:59:23.294Z,21.90
2018-12-31T01:09:28.720Z,21.90
2018-12-31T01:19:34.346Z,21.90
2018-12-31T01:29:39.804Z,21.80
2018-12-31T01:39:45.116Z,21.80
2018-12-31T01:49:50.648Z,21.70
2018-12-31T01:59:56.039Z,21.70
2018-12-31T02:10:01.508Z,21.70
2018-12-31T02:20:07.409Z,21.70
2018-12-31T02:30:12.851Z,21.70
2018-12-31T02:40:19.231Z,21.60
2018-12-31T02:50:24.782Z,21.70
2018-12-31T03:00:30.692Z,21.70
2018-12-31T03:10:36.031Z,21.60
2018-12-31T03:20:41.634Z,21.60
2018-12-31T03:30:47.054Z,21.60
2018-12-31T03:40:52.533Z,21.60
2018-12-31T03:50:57.956Z,21.60
2018-12-31T04:01:03.722Z,21.60
2018-12-31T04:11:09.348Z,21.60
2018-12-31T04:21:14.715Z,21.60
2018-12-31T04:31:22.877Z,21.70
2018-12-31T04:41:28.494Z,21.60
2018-12-31T04:51:33.925Z,21.60
2018-12-31T05:01:39.297Z,21.60
2018-12-31T05:11:44.696Z,21.60
2018-12-31T05:21:50.150Z,21.70
2018-12-31T05:31:55.615Z,21.70
2018-12-31T05:42:01.082Z,21.60
2018-12-31T05:52:06.634Z,21.60
2018-12-31T06:02:12.235Z,21.70
2018-12-31T06:12:17.946Z,21.70
2018-12-31T06:22:23.554Z,21.70
2018-12-31T06:32:29.075Z,21.60
2018-12-31T06:42:35.564Z,21.70
2018-12-31T06:52:41.021Z,21.70
2018-12-31T07:02:46.401Z,21.70
2018-12-31T07:12:53.912Z,21.70
2018-12-31T07:22:59.403Z,21.70
2018-12-31T07:33:04.930Z,21.70
2018-12-31T07:43:12.702Z,21.80
2018-12-31T07:53:18.246Z,21.80
2018-12-31T08:03:23.741Z,21.70
2018-12-31T08:13:29.128Z,21.80
2018-12-31T08:23:34.856Z,21.90
2018-12-31T08:33:40.288Z,21.90
2018-12-31T08:43:45.855Z,21.90
2018-12-31T08:53:51.398Z,22.00
2018-12-31T09:03:57.975Z,21.90
2018-12-31T09:14:03.571Z,21.90
2018-12-31T09:24:08.963Z,21.80
2018-12-31T09:34:14.536Z,21.80
2018-12-31T09:44:19.972Z,21.80
2018-12-31T09:54:25.781Z,21.80
2018-12-31T10:04:31.173Z,21.80
2018-12-31T10:14:36.620Z,21.80
2018-12-31T10:24:42.115Z,21.80
2018-12-31T10:34:49.404Z,21.80
2018-12-31T10:44:54.786Z,21.80
2018-12-31T10:55:00.289Z,21.80
2018-12-31T11:05:06.140Z,21.80
2018-12-31T11:15:11.642Z,21.80
2018-12-31T11:25:17.129Z,21.80
2018-12-31T11:35:23.010Z,21.80
2018-12-31T11:45:28.333Z,21.80
2018-12-31T11:55:35.921Z,21.80
2018-12-31T12:05:41.783Z,21.80
2018-12-31T12:15:47.392Z,21.80
2018-12-31T12:25:52.800Z,21.80
2018-12-31T12:35:58.280Z,21.80
2018-12-31T12:46:03.717Z,21.80
2018-12-31T12:56:09.105Z,21.80
2018-12-31T13:06:14.988Z,21.80
2018-12-31T13:16:20.831Z,20.30
2018-12-31T13:26:26.366Z,21.00
2018-12-31T13:36:31.954Z,21.20
2018-12-31T13:46:37.284Z,21.20
2018-12-31T13:56:42.747Z,21.30
2018-12-31T14:06:48.177Z,21.40
2018-12-31T14:16:54.689Z,21.40
2018-12-31T14:27:00.619Z,21.50
2018-12-31T14:37:06.497Z,21.50
2018-12-31T14:47:18.374Z,21.50
2018-12-31T14:57:19.258Z,21.60
2018-12-31T15:07:24.633Z,21.60
2018-12-31T15:17:30.162Z,21.60
2018-12-31T15:27:35.625Z,21.70
2018-12-31T15:37:41.023Z,21.70
2018-12-31T15:47:47.891Z,21.70
2018-12-31T15:57:53.425Z,21.70
2018-12-31T16:07:59.047Z,21.80
2018-12-31T16:18:05.780Z,21.70
2018-12-31T16:28:11.407Z,21.80
2018-12-31T16:38:18.588Z,21.70
2018-12-31T16:48:24.066Z,21.70
2018-12-31T16:58:29.893Z,21.60
2018-12-31T17:08:35.614Z,21.60
2018-12-31T17:18:41.005Z,21.60
2018-12-31T17:28:46.493Z,21.70
2018-12-31T17:38:51.973Z,21.70
2018-12-31T17:48:57.665Z,21.70
2018-12-31T17:59:03.273Z,21.70
2018-12-31T18:09:10.876Z,21.70
2018-12-31T18:19:17.821Z,21.70
2018-12-31T18:29:23.305Z,21.70
2018-12-31T18:39:29.048Z,21.70
2018-12-31T18:49:34.828Z,21.70
2018-12-31T18:59:40.264Z,21.70
2018-12-31T19:09:45.660Z,21.70
2018-12-31T19:19:51.136Z,21.70
2018-12-31T19:29:56.649Z,21.70
2018-12-31T19:40:02.227Z,21.70
2018-12-31T19:50:07.654Z,21.70
2018-12-31T20:00:13.185Z,21.60
2018-12-31T20:10:18.566Z,21.70
2018-12-31T20:20:24.442Z,21.70
2018-12-31T20:30:29.935Z,21.70
2018-12-31T20:40:35.744Z,21.70
2018-12-31T20:50:41.177Z,21.70
2018-12-31T21:00:48.791Z,21.70
2018-12-31T21:10:54.349Z,21.60
2018-12-31T21:20:59.989Z,21.60
2018-12-31T21:31:05.470Z,21.60
2018-12-31T21:41:10.876Z,21.60
2018-12-31T21:51:16.312Z,21.60
2018-12-31T22:01:21.663Z,21.60
2018-12-31T22:11:27.402Z,21.50
2018-12-31T22:21:32.765Z,21.60
2018-12-31T22:31:38.193Z,21.60
2018-12-31T22:41:43.746Z,21.50
2018-12-31T22:51:49.217Z,21.50
2018-12-31T23:01:54.640Z,21.50
2018-12-31T23:12:00.140Z,21.50
2018-12-31T23:22:05.547Z,21.50
2018-12-31T23:32:11.436Z,21.50
2018-12-31T23:42:16.950Z,21.40
2018-12-31T23:52:22.369Z,21.50
